Terminal Aerodrome Forecast
Issued by NWS Memphis, TN

Home | Current Version | Previous Version | Text Only | Print | Product List | Glossary On
Versions: 1 2 3 4 5 6 7 8 9 10 11 12 13 14 15
000
FTUS44 KMEG 301120
TAFMKL
TAF
KMKL 301120Z 3012/3112 VRB05KT P6SM SKC
     FM301500 18006KT P6SM SCT040
     FM301800 17007KT P6SM VCSH BKN050
     FM310100 16004KT P6SM BKN200=

USA.gov is the U.S. government's official web portal to all federal, state and local government web resources and services.